sensor_id;sensor_type;location;lat;lon;timestamp;P1;durP1;ratioP1;P2;durP2;ratioP2
50337;SDS011;46221;51.178;5.900;2023-06-24T00:02:13;4.43;;;3.55;;
50337;SDS011;46221;51.178;5.900;2023-06-24T00:04:39;5.47;;;3.50;;
50337;SDS011;46221;51.178;5.900;2023-06-24T00:07:05;4.85;;;3.15;;
50337;SDS011;46221;51.178;5.900;2023-06-24T00:09:32;6.85;;;3.20;;
50337;SDS011;46221;51.178;5.900;2023-06-24T00:11:59;4.65;;;3.10;;
50337;SDS011;46221;51.178;5.900;2023-06-24T00:14:26;5.15;;;3.30;;
50337;SDS011;46221;51.178;5.900;2023-06-24T00:16:53;4.20;;;3.35;;
50337;SDS011;46221;51.178;5.900;2023-06-24T00:19:20;5.47;;;3.42;;
50337;SDS011;46221;51.178;5.900;2023-06-24T00:21:47;4.13;;;3.55;;
50337;SDS011;46221;51.178;5.900;2023-06-24T00:24:14;4.82;;;3.58;;
50337;SDS011;46221;51.178;5.900;2023-06-24T00:26:40;5.65;;;3.47;;
50337;SDS011;46221;51.178;5.900;2023-06-24T00:29:07;5.50;;;3.67;;
50337;SDS011;46221;51.178;5.900;2023-06-24T00:31:33;5.22;;;3.58;;
50337;SDS011;46221;51.178;5.900;2023-06-24T00:34:00;4.70;;;3.63;;
50337;SDS011;46221;51.178;5.900;2023-06-24T00:36:26;5.00;;;3.38;;
50337;SDS011;46221;51.178;5.900;2023-06-24T00:38:53;4.28;;;3.38;;
50337;SDS011;46221;51.178;5.900;2023-06-24T00:41:19;4.50;;;3.70;;
50337;SDS011;46221;51.178;5.900;2023-06-24T00:43:46;4.50;;;3.35;;
50337;SDS011;46221;51.178;5.900;2023-06-24T00:46:13;4.82;;;3.33;;
50337;SDS011;46221;51.178;5.900;2023-06-24T00:48:40;6.47;;;3.78;;
50337;SDS011;46221;51.178;5.900;2023-06-24T00:51:06;4.65;;;3.47;;
50337;SDS011;46221;51.178;5.900;2023-06-24T00:53:32;5.13;;;3.78;;
50337;SDS011;46221;51.178;5.900;2023-06-24T00:55:59;5.05;;;3.83;;
50337;SDS011;46221;51.178;5.900;2023-06-24T00:58:30;4.95;;;3.85;;
50337;SDS011;46221;51.178;5.900;2023-06-24T01:00:57;5.90;;;3.50;;
50337;SDS011;46221;51.178;5.900;2023-06-24T01:03:24;5.78;;;3.30;;
50337;SDS011;46221;51.178;5.900;2023-06-24T01:05:52;5.20;;;3.83;;
50337;SDS011;46221;51.178;5.900;2023-06-24T01:08:19;5.93;;;3.70;;
50337;SDS011;46221;51.178;5.900;2023-06-24T01:10:49;4.78;;;3.70;;
50337;SDS011;46221;51.178;5.900;2023-06-24T01:13:17;4.63;;;3.60;;
50337;SDS011;46221;51.178;5.900;2023-06-24T01:15:43;4.57;;;3.42;;
50337;SDS011;46221;51.178;5.900;2023-06-24T01:18:11;4.15;;;3.25;;
50337;SDS011;46221;51.178;5.900;2023-06-24T01:20:54;4.03;;;3.40;;
50337;SDS011;46221;51.178;5.900;2023-06-24T01:34:12;5.13;;;3.15;;
50337;SDS011;46221;51.178;5.900;2023-06-24T01:36:35;3.83;;;3.13;;
50337;SDS011;46221;51.178;5.900;2023-06-24T01:39:04;4.78;;;3.70;;
50337;SDS011;46221;51.178;5.900;2023-06-24T01:41:32;4.63;;;3.63;;
50337;SDS011;46221;51.178;5.900;2023-06-24T01:44:00;5.10;;;3.63;;
50337;SDS011;46221;51.178;5.900;2023-06-24T01:46:28;5.63;;;3.40;;
50337;SDS011;46221;51.178;5.900;2023-06-24T01:48:57;4.22;;;3.17;;
50337;SDS011;46221;51.178;5.900;2023-06-24T01:51:24;5.57;;;3.47;;
50337;SDS011;46221;51.178;5.900;2023-06-24T01:53:54;5.03;;;3.42;;
50337;SDS011;46221;51.178;5.900;2023-06-24T01:56:24;4.35;;;3.13;;
50337;SDS011;46221;51.178;5.900;2023-06-24T01:58:52;4.38;;;3.40;;
50337;SDS011;46221;51.178;5.900;2023-06-24T02:01:19;4.10;;;3.45;;
50337;SDS011;46221;51.178;5.900;2023-06-24T02:03:47;5.22;;;3.60;;
50337;SDS011;46221;51.178;5.900;2023-06-24T02:06:13;3.60;;;3.00;;
50337;SDS011;46221;51.178;5.900;2023-06-24T02:08:40;4.00;;;3.33;;
50337;SDS011;46221;51.178;5.900;2023-06-24T02:11:08;4.22;;;3.45;;
50337;SDS011;46221;51.178;5.900;2023-06-24T02:13:34;4.38;;;3.40;;
50337;SDS011;46221;51.178;5.900;2023-06-24T02:16:04;4.70;;;3.40;;
50337;SDS011;46221;51.178;5.900;2023-06-24T02:18:33;5.03;;;3.28;;
50337;SDS011;46221;51.178;5.900;2023-06-24T02:21:00;5.15;;;3.70;;
50337;SDS011;46221;51.178;5.900;2023-06-24T02:23:27;4.05;;;3.22;;
50337;SDS011;46221;51.178;5.900;2023-06-24T02:25:54;5.75;;;3.40;;
50337;SDS011;46221;51.178;5.900;2023-06-24T02:28:21;5.82;;;3.67;;
50337;SDS011;46221;51.178;5.900;2023-06-24T02:30:47;3.72;;;2.97;;
50337;SDS011;46221;51.178;5.900;2023-06-24T02:33:15;4.28;;;3.35;;
50337;SDS011;46221;51.178;5.900;2023-06-24T02:35:41;3.83;;;3.40;;
50337;SDS011;46221;51.178;5.900;2023-06-24T02:38:08;4.00;;;3.20;;
50337;SDS011;46221;51.178;5.900;2023-06-24T02:40:35;5.47;;;4.10;;
50337;SDS011;46221;51.178;5.900;2023-06-24T02:43:01;4.82;;;3.08;;
50337;SDS011;46221;51.178;5.900;2023-06-24T02:45:28;4.07;;;3.50;;
50337;SDS011;46221;51.178;5.900;2023-06-24T02:47:54;4.57;;;3.58;;
50337;SDS011;46221;51.178;5.900;2023-06-24T02:50:22;4.40;;;3.55;;
50337;SDS011;46221;51.178;5.900;2023-06-24T02:52:49;4.30;;;3.53;;
50337;SDS011;46221;51.178;5.900;2023-06-24T02:55:16;4.78;;;3.33;;
50337;SDS011;46221;51.178;5.900;2023-06-24T02:57:42;4.80;;;3.55;;
50337;SDS011;46221;51.178;5.900;2023-06-24T03:00:10;4.78;;;3.80;;
50337;SDS011;46221;51.178;5.900;2023-06-24T03:02:39;5.25;;;3.88;;
50337;SDS011;46221;51.178;5.900;2023-06-24T03:05:06;4.65;;;3.38;;
50337;SDS011;46221;51.178;5.900;2023-06-24T03:07:33;4.70;;;3.70;;
50337;SDS011;46221;51.178;5.900;2023-06-24T03:10:03;4.18;;;3.42;;
50337;SDS011;46221;51.178;5.900;2023-06-24T03:12:31;4.03;;;3.40;;
50337;SDS011;46221;51.178;5.900;2023-06-24T03:14:57;4.93;;;3.67;;
50337;SDS011;46221;51.178;5.900;2023-06-24T03:17:24;4.63;;;3.50;;
50337;SDS011;46221;51.178;5.900;2023-06-24T03:19:53;4.22;;;3.45;;
50337;SDS011;46221;51.178;5.900;2023-06-24T03:22:20;4.35;;;3.72;;
50337;SDS011;46221;51.178;5.900;2023-06-24T03:24:47;6.18;;;3.72;;
50337;SDS011;46221;51.178;5.900;2023-06-24T03:27:13;4.90;;;3.90;;
50337;SDS011;46221;51.178;5.900;2023-06-24T03:29:39;4.28;;;3.55;;
50337;SDS011;46221;51.178;5.900;2023-06-24T03:32:06;4.43;;;3.63;;
50337;SDS011;46221;51.178;5.900;2023-06-24T03:34:32;4.97;;;3.60;;
50337;SDS011;46221;51.178;5.900;2023-06-24T03:36:59;4.10;;;3.50;;
50337;SDS011;46221;51.178;5.900;2023-06-24T03:39:25;4.57;;;3.47;;
50337;SDS011;46221;51.178;5.900;2023-06-24T03:41:51;4.72;;;3.88;;
50337;SDS011;46221;51.178;5.900;2023-06-24T03:44:18;4.50;;;3.40;;
50337;SDS011;46221;51.178;5.900;2023-06-24T03:46:44;3.80;;;3.10;;
50337;SDS011;46221;51.178;5.900;2023-06-24T03:49:10;4.20;;;3.50;;
50337;SDS011;46221;51.178;5.900;2023-06-24T03:51:37;4.80;;;3.88;;
50337;SDS011;46221;51.178;5.900;2023-06-24T03:54:03;4.30;;;3.42;;
50337;SDS011;46221;51.178;5.900;2023-06-24T03:56:29;5.10;;;3.78;;
50337;SDS011;46221;51.178;5.900;2023-06-24T03:58:56;5.68;;;3.50;;
50337;SDS011;46221;51.178;5.900;2023-06-24T04:01:22;5.15;;;3.70;;
50337;SDS011;46221;51.178;5.900;2023-06-24T04:03:49;5.10;;;3.65;;
50337;SDS011;46221;51.178;5.900;2023-06-24T04:06:15;4.00;;;3.10;;
50337;SDS011;46221;51.178;5.900;2023-06-24T04:08:41;4.05;;;3.42;;
50337;SDS011;46221;51.178;5.900;2023-06-24T04:11:09;4.78;;;3.22;;
50337;SDS011;46221;51.178;5.900;2023-06-24T04:13:35;4.78;;;3.50;;
50337;SDS011;46221;51.178;5.900;2023-06-24T04:16:02;4.80;;;3.65;;
50337;SDS011;46221;51.178;5.900;2023-06-24T04:18:28;3.88;;;3.22;;
50337;SDS011;46221;51.178;5.900;2023-06-24T04:20:54;4.78;;;3.58;;
50337;SDS011;46221;51.178;5.900;2023-06-24T04:23:21;4.60;;;3.22;;
50337;SDS011;46221;51.178;5.900;2023-06-24T04:25:47;4.28;;;3.33;;
50337;SDS011;46221;51.178;5.900;2023-06-24T04:28:14;4.85;;;3.28;;
50337;SDS011;46221;51.178;5.900;2023-06-24T04:30:40;5.10;;;3.65;;
50337;SDS011;46221;51.178;5.900;2023-06-24T04:33:07;4.38;;;3.65;;
50337;SDS011;46221;51.178;5.900;2023-06-24T04:35:33;4.47;;;3.70;;
50337;SDS011;46221;51.178;5.900;2023-06-24T04:38:00;4.30;;;3.53;;
50337;SDS011;46221;51.178;5.900;2023-06-24T04:40:26;3.95;;;3.10;;
50337;SDS011;46221;51.178;5.900;2023-06-24T04:42:53;4.78;;;3.40;;
50337;SDS011;46221;51.178;5.900;2023-06-24T04:45:19;4.82;;;3.22;;
50337;SDS011;46221;51.178;5.900;2023-06-24T04:47:45;5.03;;;3.40;;
50337;SDS011;46221;51.178;5.900;2023-06-24T04:50:12;4.70;;;3.47;;
50337;SDS011;46221;51.178;5.900;2023-06-24T04:52:39;3.70;;;3.05;;
50337;SDS011;46221;51.178;5.900;2023-06-24T04:55:05;4.75;;;3.20;;
50337;SDS011;46221;51.178;5.900;2023-06-24T04:57:32;5.45;;;3.47;;
50337;SDS011;46221;51.178;5.900;2023-06-24T04:59:59;4.47;;;3.47;;
50337;SDS011;46221;51.178;5.900;2023-06-24T05:02:26;4.78;;;3.20;;
50337;SDS011;46221;51.178;5.900;2023-06-24T05:04:52;4.93;;;3.30;;
50337;SDS011;46221;51.178;5.900;2023-06-24T05:07:19;5.18;;;3.60;;
50337;SDS011;46221;51.178;5.900;2023-06-24T05:09:48;4.93;;;3.47;;
50337;SDS011;46221;51.178;5.900;2023-06-24T05:12:15;4.30;;;3.38;;
50337;SDS011;46221;51.178;5.900;2023-06-24T05:14:41;6.18;;;4.40;;
50337;SDS011;46221;51.178;5.900;2023-06-24T05:17:08;6.47;;;3.97;;
50337;SDS011;46221;51.178;5.900;2023-06-24T05:19:34;5.85;;;4.40;;
50337;SDS011;46221;51.178;5.900;2023-06-24T05:22:00;5.72;;;4.63;;
50337;SDS011;46221;51.178;5.900;2023-06-24T05:24:27;5.93;;;4.32;;
50337;SDS011;46221;51.178;5.900;2023-06-24T05:26:53;7.50;;;4.93;;
50337;SDS011;46221;51.178;5.900;2023-06-24T05:29:20;7.90;;;5.00;;
50337;SDS011;46221;51.178;5.900;2023-06-24T05:31:46;6.72;;;5.22;;
50337;SDS011;46221;51.178;5.900;2023-06-24T05:34:12;7.65;;;5.60;;
50337;SDS011;46221;51.178;5.900;2023-06-24T05:36:39;6.75;;;5.30;;
50337;SDS011;46221;51.178;5.900;2023-06-24T05:39:05;9.05;;;5.50;;
50337;SDS011;46221;51.178;5.900;2023-06-24T05:41:34;7.75;;;5.93;;
50337;SDS011;46221;51.178;5.900;2023-06-24T05:44:01;8.15;;;5.65;;
50337;SDS011;46221;51.178;5.900;2023-06-24T05:46:28;7.65;;;6.03;;
50337;SDS011;46221;51.178;5.900;2023-06-24T05:48:55;7.93;;;6.00;;
50337;SDS011;46221;51.178;5.900;2023-06-24T05:51:21;7.22;;;5.45;;
50337;SDS011;46221;51.178;5.900;2023-06-24T05:53:49;8.93;;;6.03;;
50337;SDS011;46221;51.178;5.900;2023-06-24T05:56:15;8.00;;;6.25;;
50337;SDS011;46221;51.178;5.900;2023-06-24T05:58:42;8.70;;;6.25;;
50337;SDS011;46221;51.178;5.900;2023-06-24T06:01:09;6.97;;;5.68;;
50337;SDS011;46221;51.178;5.900;2023-06-24T06:03:35;8.38;;;6.45;;
50337;SDS011;46221;51.178;5.900;2023-06-24T06:06:02;8.38;;;5.75;;
50337;SDS011;46221;51.178;5.900;2023-06-24T06:08:28;7.75;;;6.15;;
50337;SDS011;46221;51.178;5.900;2023-06-24T06:10:55;11.00;;;6.22;;
50337;SDS011;46221;51.178;5.900;2023-06-24T06:13:21;8.70;;;6.15;;
50337;SDS011;46221;51.178;5.900;2023-06-24T06:15:47;8.32;;;6.40;;
50337;SDS011;46221;51.178;5.900;2023-06-24T06:18:14;7.43;;;5.93;;
50337;SDS011;46221;51.178;5.900;2023-06-24T06:20:40;6.65;;;5.18;;
50337;SDS011;46221;51.178;5.900;2023-06-24T06:23:07;8.15;;;5.50;;
50337;SDS011;46221;51.178;5.900;2023-06-24T06:25:33;7.40;;;5.55;;
50337;SDS011;46221;51.178;5.900;2023-06-24T06:28:00;9.15;;;5.65;;
50337;SDS011;46221;51.178;5.900;2023-06-24T06:30:26;7.05;;;6.03;;
50337;SDS011;46221;51.178;5.900;2023-06-24T06:32:52;7.32;;;5.28;;
50337;SDS011;46221;51.178;5.900;2023-06-24T06:35:19;10.25;;;6.85;;
50337;SDS011;46221;51.178;5.900;2023-06-24T06:37:45;7.43;;;5.88;;
50337;SDS011;46221;51.178;5.900;2023-06-24T06:40:21;6.95;;;5.75;;
50337;SDS011;46221;51.178;5.900;2023-06-24T06:42:48;8.30;;;5.95;;
50337;SDS011;46221;51.178;5.900;2023-06-24T06:45:15;7.40;;;5.75;;
50337;SDS011;46221;51.178;5.900;2023-06-24T06:47:41;7.95;;;6.18;;
50337;SDS011;46221;51.178;5.900;2023-06-24T06:50:07;11.30;;;7.43;;
50337;SDS011;46221;51.178;5.900;2023-06-24T06:52:34;11.70;;;6.82;;
50337;SDS011;46221;51.178;5.900;2023-06-24T06:55:00;9.15;;;6.22;;
50337;SDS011;46221;51.178;5.900;2023-06-24T06:57:26;9.25;;;7.25;;
50337;SDS011;46221;51.178;5.900;2023-06-24T06:59:54;8.90;;;6.90;;
50337;SDS011;46221;51.178;5.900;2023-06-24T07:02:20;11.32;;;6.72;;
50337;SDS011;46221;51.178;5.900;2023-06-24T07:04:46;11.52;;;7.78;;
50337;SDS011;46221;51.178;5.900;2023-06-24T07:07:14;9.27;;;7.22;;
50337;SDS011;46221;51.178;5.900;2023-06-24T07:09:40;10.02;;;7.20;;
50337;SDS011;46221;51.178;5.900;2023-06-24T07:12:07;11.82;;;6.97;;
50337;SDS011;46221;51.178;5.900;2023-06-24T07:14:33;9.30;;;6.78;;
50337;SDS011;46221;51.178;5.900;2023-06-24T07:17:00;10.30;;;7.25;;
50337;SDS011;46221;51.178;5.900;2023-06-24T07:19:27;8.43;;;7.30;;
50337;SDS011;46221;51.178;5.900;2023-06-24T07:21:53;9.50;;;7.57;;
50337;SDS011;46221;51.178;5.900;2023-06-24T07:24:20;11.10;;;7.63;;
50337;SDS011;46221;51.178;5.900;2023-06-24T07:26:46;11.93;;;8.02;;
50337;SDS011;46221;51.178;5.900;2023-06-24T07:29:12;9.98;;;7.38;;
50337;SDS011;46221;51.178;5.900;2023-06-24T07:31:40;8.32;;;7.10;;
50337;SDS011;46221;51.178;5.900;2023-06-24T07:34:07;11.38;;;7.72;;
50337;SDS011;46221;51.178;5.900;2023-06-24T07:36:33;8.38;;;6.95;;
50337;SDS011;46221;51.178;5.900;2023-06-24T07:38:59;13.10;;;8.10;;
50337;SDS011;46221;51.178;5.900;2023-06-24T07:41:27;12.30;;;7.93;;
50337;SDS011;46221;51.178;5.900;2023-06-24T07:43:53;10.45;;;7.30;;
50337;SDS011;46221;51.178;5.900;2023-06-24T07:46:21;11.40;;;7.07;;
50337;SDS011;46221;51.178;5.900;2023-06-24T07:48:47;10.00;;;6.57;;
50337;SDS011;46221;51.178;5.900;2023-06-24T07:51:14;7.47;;;6.60;;
50337;SDS011;46221;51.178;5.900;2023-06-24T07:53:40;8.90;;;6.55;;
50337;SDS011;46221;51.178;5.900;2023-06-24T07:56:06;9.48;;;5.78;;
50337;SDS011;46221;51.178;5.900;2023-06-24T07:58:33;7.13;;;5.95;;
50337;SDS011;46221;51.178;5.900;2023-06-24T08:01:00;8.55;;;6.50;;
50337;SDS011;46221;51.178;5.900;2023-06-24T08:03:26;9.27;;;5.90;;
50337;SDS011;46221;51.178;5.900;2023-06-24T08:05:53;8.27;;;5.28;;
50337;SDS011;46221;51.178;5.900;2023-06-24T08:08:19;8.27;;;5.30;;
50337;SDS011;46221;51.178;5.900;2023-06-24T08:10:46;8.35;;;4.25;;
50337;SDS011;46221;51.178;5.900;2023-06-24T08:13:13;8.07;;;4.80;;
50337;SDS011;46221;51.178;5.900;2023-06-24T08:15:39;6.22;;;4.43;;
50337;SDS011;46221;51.178;5.900;2023-06-24T08:18:07;8.07;;;4.65;;
50337;SDS011;46221;51.178;5.900;2023-06-24T08:20:34;6.88;;;4.80;;
50337;SDS011;46221;51.178;5.900;2023-06-24T08:23:00;5.60;;;3.72;;
50337;SDS011;46221;51.178;5.900;2023-06-24T08:25:27;8.95;;;4.20;;
50337;SDS011;46221;51.178;5.900;2023-06-24T08:27:53;10.18;;;4.38;;
50337;SDS011;46221;51.178;5.900;2023-06-24T08:30:20;7.20;;;4.25;;
50337;SDS011;46221;51.178;5.900;2023-06-24T08:32:46;6.55;;;4.32;;
50337;SDS011;46221;51.178;5.900;2023-06-24T08:35:12;6.38;;;4.15;;
50337;SDS011;46221;51.178;5.900;2023-06-24T08:37:39;6.38;;;4.13;;
50337;SDS011;46221;51.178;5.900;2023-06-24T08:40:06;5.93;;;3.78;;
50337;SDS011;46221;51.178;5.900;2023-06-24T08:42:32;6.35;;;3.85;;
50337;SDS011;46221;51.178;5.900;2023-06-24T08:44:59;4.97;;;3.65;;
50337;SDS011;46221;51.178;5.900;2023-06-24T08:47:25;6.10;;;3.95;;
50337;SDS011;46221;51.178;5.900;2023-06-24T08:49:55;6.45;;;3.88;;
50337;SDS011;46221;51.178;5.900;2023-06-24T08:52:27;5.57;;;3.47;;
50337;SDS011;46221;51.178;5.900;2023-06-24T08:54:55;4.20;;;3.38;;
50337;SDS011;46221;51.178;5.900;2023-06-24T08:57:24;5.57;;;3.85;;
50337;SDS011;46221;51.178;5.900;2023-06-24T08:59:51;5.45;;;3.10;;
50337;SDS011;46221;51.178;5.900;2023-06-24T09:02:18;6.97;;;3.63;;
50337;SDS011;46221;51.178;5.900;2023-06-24T09:04:45;5.82;;;3.80;;
50337;SDS011;46221;51.178;5.900;2023-06-24T09:07:11;4.00;;;2.78;;
50337;SDS011;46221;51.178;5.900;2023-06-24T09:09:42;4.53;;;3.15;;
50337;SDS011;46221;51.178;5.900;2023-06-24T09:12:10;5.15;;;3.42;;
50337;SDS011;46221;51.178;5.900;2023-06-24T09:14:40;3.55;;;2.88;;
50337;SDS011;46221;51.178;5.900;2023-06-24T09:17:07;5.13;;;2.97;;
50337;SDS011;46221;51.178;5.900;2023-06-24T09:19:35;6.25;;;2.97;;
50337;SDS011;46221;51.178;5.900;2023-06-24T09:22:06;5.25;;;3.47;;
50337;SDS011;46221;51.178;5.900;2023-06-24T09:24:33;4.88;;;3.08;;
50337;SDS011;46221;51.178;5.900;2023-06-24T09:26:59;4.55;;;3.15;;
50337;SDS011;46221;51.178;5.900;2023-06-24T09:29:27;4.63;;;3.13;;
50337;SDS011;46221;51.178;5.900;2023-06-24T09:31:55;5.65;;;3.15;;
50337;SDS011;46221;51.178;5.900;2023-06-24T09:34:23;3.17;;;2.70;;
50337;SDS011;46221;51.178;5.900;2023-06-24T09:36:53;4.22;;;2.60;;
50337;SDS011;46221;51.178;5.900;2023-06-24T09:39:21;5.38;;;2.75;;
50337;SDS011;46221;51.178;5.900;2023-06-24T09:41:59;5.20;;;2.47;;
50337;SDS011;46221;51.178;5.900;2023-06-24T09:44:26;7.05;;;3.08;;
50337;SDS011;46221;51.178;5.900;2023-06-24T09:46:53;3.55;;;2.60;;
50337;SDS011;46221;51.178;5.900;2023-06-24T09:49:20;3.35;;;2.42;;
50337;SDS011;46221;51.178;5.900;2023-06-24T09:51:47;4.80;;;2.60;;
50337;SDS011;46221;51.178;5.900;2023-06-24T09:54:14;3.33;;;2.30;;
50337;SDS011;46221;51.178;5.900;2023-06-24T09:56:49;2.92;;;2.35;;
50337;SDS011;46221;51.178;5.900;2023-06-24T09:59:17;3.28;;;2.25;;
50337;SDS011;46221;51.178;5.900;2023-06-24T10:01:46;3.50;;;2.50;;
50337;SDS011;46221;51.178;5.900;2023-06-24T10:04:17;3.95;;;2.60;;
50337;SDS011;46221;51.178;5.900;2023-06-24T10:06:43;5.53;;;2.28;;
50337;SDS011;46221;51.178;5.900;2023-06-24T10:09:10;3.00;;;2.10;;
50337;SDS011;46221;51.178;5.900;2023-06-24T10:11:43;2.78;;;2.03;;
50337;SDS011;46221;51.178;5.900;2023-06-24T10:14:09;3.70;;;2.30;;
50337;SDS011;46221;51.178;5.900;2023-06-24T10:16:36;5.47;;;2.50;;
50337;SDS011;46221;51.178;5.900;2023-06-24T10:19:03;3.80;;;2.40;;
50337;SDS011;46221;51.178;5.900;2023-06-24T10:24:48;2.83;;;2.28;;
50337;SDS011;46221;51.178;5.900;2023-06-24T10:27:10;3.15;;;1.90;;
50337;SDS011;46221;51.178;5.900;2023-06-24T10:29:39;3.47;;;2.22;;
50337;SDS011;46221;51.178;5.900;2023-06-24T10:32:10;3.45;;;2.10;;
50337;SDS011;46221;51.178;5.900;2023-06-24T10:37:13;2.95;;;2.20;;
50337;SDS011;46221;51.178;5.900;2023-06-24T10:39:40;3.13;;;2.05;;
50337;SDS011;46221;51.178;5.900;2023-06-24T10:44:46;4.57;;;2.55;;
50337;SDS011;46221;51.178;5.900;2023-06-24T10:47:12;3.30;;;2.00;;
50337;SDS011;46221;51.178;5.900;2023-06-24T10:49:39;3.30;;;2.00;;
50337;SDS011;46221;51.178;5.900;2023-06-24T10:52:08;2.90;;;2.00;;
50337;SDS011;46221;51.178;5.900;2023-06-24T10:54:37;3.10;;;2.00;;
50337;SDS011;46221;51.178;5.900;2023-06-24T10:57:07;3.45;;;2.42;;
50337;SDS011;46221;51.178;5.900;2023-06-24T10:59:34;3.25;;;2.05;;
50337;SDS011;46221;51.178;5.900;2023-06-24T11:02:00;4.45;;;2.20;;
50337;SDS011;46221;51.178;5.900;2023-06-24T11:04:27;3.83;;;2.15;;
50337;SDS011;46221;51.178;5.900;2023-06-24T11:06:57;3.25;;;2.10;;
50337;SDS011;46221;51.178;5.900;2023-06-24T11:09:24;5.03;;;2.08;;
50337;SDS011;46221;51.178;5.900;2023-06-24T11:11:50;4.43;;;2.47;;
50337;SDS011;46221;51.178;5.900;2023-06-24T11:14:17;3.55;;;1.88;;
50337;SDS011;46221;51.178;5.900;2023-06-24T11:16:45;6.20;;;2.30;;
50337;SDS011;46221;51.178;5.900;2023-06-24T11:19:11;5.20;;;2.13;;
50337;SDS011;46221;51.178;5.900;2023-06-24T11:21:38;4.05;;;2.15;;
50337;SDS011;46221;51.178;5.900;2023-06-24T11:24:04;3.65;;;2.00;;
50337;SDS011;46221;51.178;5.900;2023-06-24T11:26:31;2.97;;;2.10;;
50337;SDS011;46221;51.178;5.900;2023-06-24T11:28:58;3.85;;;1.90;;
50337;SDS011;46221;51.178;5.900;2023-06-24T11:31:28;4.45;;;2.47;;
50337;SDS011;46221;51.178;5.900;2023-06-24T11:33:54;4.10;;;2.20;;
50337;SDS011;46221;51.178;5.900;2023-06-24T11:36:21;3.72;;;2.20;;
50337;SDS011;46221;51.178;5.900;2023-06-24T11:38:48;2.38;;;1.70;;
50337;SDS011;46221;51.178;5.900;2023-06-24T11:41:14;3.85;;;2.03;;
50337;SDS011;46221;51.178;5.900;2023-06-24T11:43:47;2.92;;;1.73;;
50337;SDS011;46221;51.178;5.900;2023-06-24T11:46:26;3.08;;;1.85;;
50337;SDS011;46221;51.178;5.900;2023-06-24T11:49:03;3.38;;;2.05;;
50337;SDS011;46221;51.178;5.900;2023-06-24T11:51:29;3.28;;;2.15;;
50337;SDS011;46221;51.178;5.900;2023-06-24T11:53:58;4.03;;;1.95;;
50337;SDS011;46221;51.178;5.900;2023-06-24T11:56:34;4.78;;;1.90;;
50337;SDS011;46221;51.178;5.900;2023-06-24T11:59:03;4.97;;;2.10;;
50337;SDS011;46221;51.178;5.900;2023-06-24T12:01:30;3.20;;;1.90;;
50337;SDS011;46221;51.178;5.900;2023-06-24T12:03:57;4.55;;;1.80;;
50337;SDS011;46221;51.178;5.900;2023-06-24T12:06:23;3.65;;;1.90;;
50337;SDS011;46221;51.178;5.900;2023-06-24T12:08:50;3.50;;;1.83;;
50337;SDS011;46221;51.178;5.900;2023-06-24T12:11:18;6.13;;;2.20;;
50337;SDS011;46221;51.178;5.900;2023-06-24T12:13:44;4.72;;;1.98;;
50337;SDS011;46221;51.178;5.900;2023-06-24T12:16:10;2.65;;;1.88;;
50337;SDS011;46221;51.178;5.900;2023-06-24T12:18:37;4.30;;;2.00;;
50337;SDS011;46221;51.178;5.900;2023-06-24T12:21:03;2.92;;;1.80;;
50337;SDS011;46221;51.178;5.900;2023-06-24T12:23:29;4.63;;;1.85;;
50337;SDS011;46221;51.178;5.900;2023-06-24T12:25:56;5.32;;;1.88;;
50337;SDS011;46221;51.178;5.900;2023-06-24T12:28:22;3.92;;;2.15;;
50337;SDS011;46221;51.178;5.900;2023-06-24T12:30:48;4.20;;;1.80;;
50337;SDS011;46221;51.178;5.900;2023-06-24T12:33:15;5.38;;;2.22;;
50337;SDS011;46221;51.178;5.900;2023-06-24T12:35:45;5.20;;;2.05;;
50337;SDS011;46221;51.178;5.900;2023-06-24T12:38:11;3.65;;;1.98;;
50337;SDS011;46221;51.178;5.900;2023-06-24T12:40:38;3.30;;;1.90;;
50337;SDS011;46221;51.178;5.900;2023-06-24T12:43:04;4.25;;;2.08;;
50337;SDS011;46221;51.178;5.900;2023-06-24T12:45:31;6.18;;;3.05;;
50337;SDS011;46221;51.178;5.900;2023-06-24T12:47:57;4.28;;;1.83;;
50337;SDS011;46221;51.178;5.900;2023-06-24T12:50:25;5.32;;;2.22;;
50337;SDS011;46221;51.178;5.900;2023-06-24T12:52:51;6.18;;;2.30;;
50337;SDS011;46221;51.178;5.900;2023-06-24T12:55:18;3.83;;;2.08;;
50337;SDS011;46221;51.178;5.900;2023-06-24T12:57:44;3.05;;;1.60;;
50337;SDS011;46221;51.178;5.900;2023-06-24T13:00:11;2.80;;;1.80;;
50337;SDS011;46221;51.178;5.900;2023-06-24T13:02:37;3.38;;;1.90;;
50337;SDS011;46221;51.178;5.900;2023-06-24T13:05:05;5.70;;;2.40;;
50337;SDS011;46221;51.178;5.900;2023-06-24T13:07:32;4.10;;;1.90;;
50337;SDS011;46221;51.178;5.900;2023-06-24T13:09:59;5.47;;;2.10;;
50337;SDS011;46221;51.178;5.900;2023-06-24T13:12:26;3.05;;;1.73;;
50337;SDS011;46221;51.178;5.900;2023-06-24T13:14:52;4.00;;;1.70;;
50337;SDS011;46221;51.178;5.900;2023-06-24T13:17:18;4.75;;;1.90;;
50337;SDS011;46221;51.178;5.900;2023-06-24T13:19:45;5.40;;;1.80;;
50337;SDS011;46221;51.178;5.900;2023-06-24T13:22:11;3.60;;;1.50;;
50337;SDS011;46221;51.178;5.900;2023-06-24T13:24:38;4.25;;;1.80;;
50337;SDS011;46221;51.178;5.900;2023-06-24T13:27:04;3.67;;;1.80;;
50337;SDS011;46221;51.178;5.900;2023-06-24T13:29:30;2.92;;;1.90;;
50337;SDS011;46221;51.178;5.900;2023-06-24T13:31:57;3.33;;;1.60;;
50337;SDS011;46221;51.178;5.900;2023-06-24T13:34:24;2.60;;;1.70;;
50337;SDS011;46221;51.178;5.900;2023-06-24T13:36:50;4.93;;;2.10;;
50337;SDS011;46221;51.178;5.900;2023-06-24T13:39:16;4.22;;;1.63;;
50337;SDS011;46221;51.178;5.900;2023-06-24T13:41:46;6.57;;;1.90;;
50337;SDS011;46221;51.178;5.900;2023-06-24T13:44:13;3.45;;;2.00;;
50337;SDS011;46221;51.178;5.900;2023-06-24T13:46:39;6.20;;;2.28;;
50337;SDS011;46221;51.178;5.900;2023-06-24T13:49:05;3.67;;;1.90;;
50337;SDS011;46221;51.178;5.900;2023-06-24T13:51:32;4.80;;;2.10;;
50337;SDS011;46221;51.178;5.900;2023-06-24T13:53:58;4.22;;;1.70;;
50337;SDS011;46221;51.178;5.900;2023-06-24T13:56:25;3.88;;;1.70;;
50337;SDS011;46221;51.178;5.900;2023-06-24T13:58:52;4.22;;;1.70;;
50337;SDS011;46221;51.178;5.900;2023-06-24T14:01:19;4.05;;;1.80;;
50337;SDS011;46221;51.178;5.900;2023-06-24T14:03:46;5.28;;;1.77;;
50337;SDS011;46221;51.178;5.900;2023-06-24T14:06:16;4.05;;;1.80;;
50337;SDS011;46221;51.178;5.900;2023-06-24T14:08:42;3.72;;;1.80;;
50337;SDS011;46221;51.178;5.900;2023-06-24T14:11:09;3.72;;;1.60;;
50337;SDS011;46221;51.178;5.900;2023-06-24T14:13:35;2.92;;;1.73;;
50337;SDS011;46221;51.178;5.900;2023-06-24T14:16:05;3.70;;;1.70;;
50337;SDS011;46221;51.178;5.900;2023-06-24T14:18:32;3.22;;;1.70;;
50337;SDS011;46221;51.178;5.900;2023-06-24T14:20:58;3.17;;;1.60;;
50337;SDS011;46221;51.178;5.900;2023-06-24T14:23:25;4.82;;;1.98;;
50337;SDS011;46221;51.178;5.900;2023-06-24T14:25:52;3.45;;;1.67;;
50337;SDS011;46221;51.178;5.900;2023-06-24T14:28:19;3.22;;;1.40;;
50337;SDS011;46221;51.178;5.900;2023-06-24T14:30:45;3.10;;;1.52;;
50337;SDS011;46221;51.178;5.900;2023-06-24T14:33:12;3.25;;;1.50;;
50337;SDS011;46221;51.178;5.900;2023-06-24T14:35:39;3.08;;;1.42;;
50337;SDS011;46221;51.178;5.900;2023-06-24T14:38:05;3.22;;;1.50;;
50337;SDS011;46221;51.178;5.900;2023-06-24T14:40:32;2.33;;;1.35;;
50337;SDS011;46221;51.178;5.900;2023-06-24T14:42:59;2.60;;;1.30;;
50337;SDS011;46221;51.178;5.900;2023-06-24T14:45:25;2.80;;;1.40;;
50337;SDS011;46221;51.178;5.900;2023-06-24T14:47:53;4.10;;;1.60;;
50337;SDS011;46221;51.178;5.900;2023-06-24T14:50:20;2.97;;;1.50;;
50337;SDS011;46221;51.178;5.900;2023-06-24T14:52:46;3.70;;;1.45;;
50337;SDS011;46221;51.178;5.900;2023-06-24T14:55:12;3.33;;;1.48;;
50337;SDS011;46221;51.178;5.900;2023-06-24T14:57:39;2.22;;;1.30;;
50337;SDS011;46221;51.178;5.900;2023-06-24T15:00:06;2.90;;;1.65;;
50337;SDS011;46221;51.178;5.900;2023-06-24T15:02:33;2.45;;;1.30;;
50337;SDS011;46221;51.178;5.900;2023-06-24T15:05:00;2.83;;;1.48;;
50337;SDS011;46221;51.178;5.900;2023-06-24T15:07:27;2.08;;;1.40;;